Tiempo atmosférico en la estación meteorológica de León Aeropuerto, León (916 m.)



Fecha
DESCASC
Temp. máxima en grados centígrados (hora)
DESCASC
Temp. mínima en grados centígrados (hora)
DESCASC
Temp. media en grados centígrados
DESCASC
Racha de viento máxima en m/sg (hora)
DESCASC
Velocidad máxima media en intervalos de 10 minutos(hora)
DESCASC
Precipitaciones diarias en mm
DESCASC
Precipitaciones de 00:00 a 06:00 en mm
DESCASC
Precipitaciones de 06:00 a 12:00 en mm
DESCASC
Precipitaciones de 12:00 a 18:00 en mm
DESCASC
Precipitaciones de 18:00 a 24:00 en mm
DESCASC

Gráficas

Temp. máximas Temp. mínimas Temp. medias Precipitaciones Rachas de viento máximas Velocidades máximas media en intervalos de 10 minutos

Datos horarios

Fecha y hora oficial Temperatura (ºC) Velocidad del viento (km/h) Dirección del viento Racha (km/h) Dirección de racha Precipitación (mm) Presión (hPa) Tendencia (hPa) Humedad (%)
2019-10-14 23:00:00 5.7 17 Oeste 30 Oeste 0 910.4 2.2 86
2019-10-14 22:00:00 5.7 12 Oeste 32 Oeste 0 909.5 2 85
2019-10-14 21:00:00 6.2 15 Oeste 41 Oeste 0 909 2.3 85
2019-10-14 20:00:00 6.9 22 Oeste 48 Oeste 0 908.2 2 83
2019-10-14 19:00:00 8.2 23 Oeste 37 Oeste 0 907.5 2.1 82
2019-10-14 18:00:00 8.9 24 Oeste 37 Oeste 0 906.7 1 82
2019-10-14 17:00:00 5.8 22 Oeste 52 Oeste 4.2 906.2 0.1 89
2019-10-14 16:00:00 10.3 23 Sur 33 Sur 0 905.4 -0.7 87
2019-10-14 15:00:00 9.7 21 Sur 37 Sudoeste 0.1 905.7 0.1 89
2019-10-14 14:00:00 9.2 22 Sur 41 Sur 1 906.1 0.8 91
2019-10-14 13:00:00 9.5 29 Sudoeste 39 Sudoeste 0.2 906.1 1.9 85
2019-10-14 12:00:00 9.5 13 Sur 22 Sudoeste 0 905.6 1.8 88
2019-10-14 11:00:00 8.4 9 Sudoeste 13 Sudoeste 0.9 905.3 1.7 92
2019-10-14 10:00:00 7.8 7 Noroeste 28 Oeste 1.6 904.2 1.3 91
2019-10-14 09:00:00 8 19 Oeste 41 Oeste 1.8 903.8 0.1 91
2019-10-14 08:00:00 9.4 20 Oeste 32 Oeste 1.6 903.6 -0.9 89
2019-10-14 07:00:00 13.3 14 Sur 21 Sur 0 902.9 -2.4 71
2019-10-14 06:00:00 13.7 10 Sudeste 15 Sur 0 903.7 -2.3 67
2019-10-14 05:00:00 13.5 8 Este 15 Este 0 904.5 -2.1 67
2019-10-14 04:00:00 13.5 8 Sudeste 17 Sudeste 0 905.3 -2 69
2019-10-14 03:00:00 13.3 10 Sudeste 15 Sudeste 0 906 -1.7 69
2019-10-14 02:00:00 13 7 Sudeste 17 Sur 0 906.6 -1.5 69
2019-10-14 01:00:00 13.3 11 Sur 24 Sudeste 0 907.3 -0.7 67
2019-10-14 00:00:00 13.7 7 Sur 24 Sur 0 907.7 -0.4 65
2019-10-13 23:00:00 14.7 21 Sur 37 Sur 0 908.1 0.3 62
2019-10-13 22:00:00 15.3 24 Sur 33 Sur 0 908 0.4 60
2019-10-13 21:00:00 16 19 Sur 30 Sudoeste 0 908.1 0.2 57
2019-10-13 20:00:00 17.1 14 Sur 35 Sur 0 907.8 -0.6 56
2019-10-13 19:00:00 17.9 18 Sur 37 Sur 0 907.6 -1.1 57
2019-10-13 18:00:00 19.8 27 Sur 39 Sur 0 907.9 -1.1 50
2019-10-13 17:00:00 18.7 23 Sur 37 Sudoeste 0 908.4 -1.2 56
2019-10-13 16:00:00 17.6 23 Sur 35 Sur 0 908.7 -1.2 61
2019-10-13 15:00:00 17.6 27 Sur 41 Sur 0 909 -0.8 61
2019-10-13 14:00:00 16.6 24 Sur 39 Sur 0 909.6 -0.2 65
2019-10-13 13:00:00 15.2 27 Sudoeste 41 Sudoeste 0 909.9 0.5 71
2019-10-13 12:00:00 14.1 18 Sur 28 Sur 0 909.8 0.8 75
2019-10-13 11:00:00 12.6 15 Sur 24 Sur 0 909.8 1.2 82
2019-10-13 10:00:00 12 15 Sur 28 Sur 0 909.4 1.1 83
2019-10-13 09:00:00 11.5 9 Sudeste 17 Sudeste 0 909 0.8 83
2019-10-13 08:00:00 12.1 9 Sudeste 30 Sur 0 908.6 0.5 81
2019-10-13 07:00:00 12.5 19 Sur 42 Sur 0 908.3 0.2 80
2019-10-13 06:00:00 13.1 28 Sur 45 Sudoeste 0 908.2 -0.3 79
2019-10-13 05:00:00 14.1 21 Sudoeste 39 Sudoeste 0 908.1 -0.6 80
2019-10-13 04:00:00 14.6 22 Sur 39 Sur 0 908.1 -1 80
2019-10-13 03:00:00 14.5 20 Sur 33 Sudoeste 0 908.5 -0.2 81
2019-10-13 02:00:00 15.1 23 Sudoeste 32 Sudoeste 0 908.7 0.5 79
2019-10-13 01:00:00 16.4 12 Sudoeste 22 Sudoeste 0 909.1 1.1 68
2019-10-13 00:00:00 16.5 8 Sudoeste 22 Sur 0 908.7 0.6 55
2019-10-12 23:00:00 18.8 10 Sudeste 28 Sur 0 908.2 0.4 47
2019-10-12 22:00:00 19.6 12 Sur 22 Sudoeste 0 908 0.3 46
2019-10-12 21:00:00 21.1 18 Sudoeste 37 Sudoeste 0 908.1 0.2 41
2019-10-12 20:00:00 21.1 24 Sur 45 Sur 0 907.8 -0.4 42
2019-10-12 19:00:00 23.4 33 Sudoeste 59 Sudoeste 0 907.7 -1 33
2019-10-12 18:00:00 23.9 43 Sudoeste 67 Sudoeste 0 907.9 -1.6 30
2019-10-12 17:00:00 24 30 Sudoeste 50 Sudoeste 0 908.2 -2.2 32
2019-10-12 16:00:00 23.7 28 Sudoeste 45 Sur 0 908.7 -2.4 36
2019-10-12 15:00:00 23.1 33 Sur 54 Sudoeste 0 909.5 -1.8 39
2019-10-12 14:00:00 21.4 34 Sudoeste 50 Sur 0 910.4 -1.1 48
2019-10-12 13:00:00 20.2 23 Sur 35 Sur 0 911.1 -0.3 58
2019-10-12 12:00:00 18.4 23 Sur 33 Sur 0 911.3 0.4 64
2019-10-12 11:00:00 16.6 9 Sur 18 Sudoeste 0 911.5 0.8 69
2019-10-12 10:00:00 13.8 7 Sur 13 Sur 0 911.4 0.6 75
2019-10-12 09:00:00 13.7 4 Este 11 Nordeste 0 910.9 0.3 74
2019-10-12 08:00:00 13 8 Este 13 Sudeste 0 910.7 -0.1 76
2019-10-12 07:00:00 11.5 5 Norte 13 Norte 0 910.8 -0.1 79
2019-10-12 06:00:00 13.2 3 Nordeste 13 Norte 0 910.6 -0.7 73
2019-10-12 05:00:00 12.8 4 Norte 9 Nordeste 0 910.8 -0.9 72
2019-10-12 04:00:00 12.4 3 Nordeste 11 Nordeste 0 910.9 -1.2 72
2019-10-12 03:00:00 12.6 7 Norte 13 Nordeste 0 911.3 -1 71
2019-10-12 02:00:00 12.5 7 Norte 9 Norte 0 911.7 -0.4 70
2019-10-12 01:00:00 13.4 3 Nordeste 8 Norte 0 912.1 0.5 65
2019-10-12 00:00:00 14.7 2 Nordeste 13 Sudeste 0 912.3 0.8 60
2019-10-11 23:00:00 16.7 4 Nordeste 13 Nordeste 0 912.1 0.5 54
2019-10-11 22:00:00 17.6 3 Oeste 11 Noroeste 0 911.6 -0.3 51
2019-10-11 21:00:00 18.2 8 Oeste 13 Sudoeste 0 911.5 -0.6 48
2019-10-11 20:00:00 22.2 13 Sudoeste 33 Sudoeste 0 911.6 -0.8 38
2019-10-11 19:00:00 24.1 19 Sudoeste 42 Sudoeste 0 911.9 -1.2 33
2019-10-11 18:00:00 24.8 31 Sudoeste 45 Sudoeste 0 912.1 -1.7 32
2019-10-11 17:00:00 24.9 20 Sur 32 Sur 0 912.4 -2.5 32
2019-10-11 16:00:00 24 19 Sur 35 Sur 0 913.1 -2.4 31
2019-10-11 15:00:00 23.2 16 Sudoeste 26 Sudoeste 0 913.8 -2.1 31
2019-10-11 14:00:00 21.2 8 Sudeste 21 Sur 0 914.9 -1.3 34
2019-10-11 13:00:00 19.7 9 Sudeste 18 Sudeste 0 915.5 -0.4 36
2019-10-11 12:00:00 17.2 7 Este 13 Este 0 915.9 0.3 42
2019-10-11 11:00:00 15.1 6 Este 11 Nordeste 0 916.2 0.9 49
2019-10-11 10:00:00 11.1 8 Norte 11 Norte 0 915.9 0.7 66
2019-10-11 09:00:00 7.1 7 Norte 9 Norte 0 915.6 0.6 75
2019-10-11 08:00:00 7.8 0 Calma 8 Norte 0 915.3 0 72
2019-10-11 07:00:00 8.2 5 Norte 11 Norte 0 915.2 -0.5 71
2019-10-11 06:00:00 8.5 5 Norte 11 Norte 0 915 -0.9 69
2019-10-11 05:00:00 8.5 8 Norte 11 Norte 0 915.3 -0.6 69
2019-10-11 04:00:00 8.9 9 Norte 11 Norte 0 915.7 -0.4 69
2019-10-11 03:00:00 8.1 4 Norte -- -- 0 915.9 -0.5 70
2019-10-11 02:00:00 10.1 4 Norte 13 Norte 0 915.9 -0.4 62
2019-10-11 01:00:00 10.1 10 Norte 13 Norte 0 916.1 0 62
2019-10-11 00:00:00 10.6 9 Norte 13 Norte 0 916.4 0.6 60
2019-10-10 23:00:00 11.1 8 Norte 11 Norte 0 916.3 0.8 58
2019-10-10 22:00:00 14.2 5 Oeste -- -- 0 916.1 0.6 49
2019-10-10 21:00:00 15.1 8 Oeste 9 Oeste 0 915.8 0.3 46
2019-10-10 20:00:00 19.2 4 Sudeste 11 Sur 0 915.5 -0.5 35
2019-10-10 19:00:00 21.4 5 Sur 15 Sudeste 0 915.5 -0.9 31
2019-10-10 18:00:00 21.5 9 Sur 17 Sur 0 915.5 -1.5 30
2019-10-10 17:00:00 21.6 6 Este 15 Este 0 916 -1.7 31
2019-10-10 16:00:00 20.4 9 Este 17 Sudeste 0 916.4 -1.8 32
2019-10-10 15:00:00 19.3 9 Nordeste 17 Nordeste 0 917 -1.5 35
2019-10-10 14:00:00 18 3 Sudeste 13 Este 0 917.7 -1 38
2019-10-10 13:00:00 15.4 4 Sudeste 11 Sudeste 0 918.2 -0.2 50
2019-10-10 12:00:00 13.4 3 Nordeste 11 Este 0 918.5 0.6 58
2019-10-10 11:00:00 10.9 6 Nordeste 13 Este 0 918.7 1.1 66
2019-10-10 10:00:00 8.2 6 Nordeste 9 Nordeste 0 918.4 0.9 76
2019-10-10 09:00:00 4.8 4 Noroeste 9 Noroeste 0 917.9 0.3 85
2019-10-10 08:00:00 4.5 6 Noroeste 13 Norte 0 917.6 0.1 86
2019-10-10 07:00:00 4.5 7 Noroeste 11 Norte 0 917.5 -0.3 88
2019-10-10 06:00:00 4.6 10 Norte 11 Norte 0 917.6 -0.2 87
2019-10-10 05:00:00 5.6 3 Noroeste 9 Noroeste 0 917.5 -0.5 86
2019-10-10 04:00:00 6.1 8 Noroeste 9 Noroeste 0 917.8 0 82
2019-10-10 03:00:00 6.2 4 Noroeste 9 Norte 0 917.8 0.4 80
2019-10-10 02:00:00 7.5 4 Norte 8 Norte 0 918 0.6 75
2019-10-10 01:00:00 8.1 2 Noroeste 8 Norte 0 917.8 0.6 73
2019-10-10 00:00:00 8.9 5 Noroeste 11 Norte 0 917.4 1 69
2019-10-09 23:00:00 9.6 6 Norte 11 Norte 0 917.4 1.4 68
2019-10-09 22:00:00 11.6 8 Nordeste 13 Este 0 917.2 1.7 62
2019-10-09 21:00:00 12.8 9 Norte 21 Norte 0 916.4 1.2 58
2019-10-09 20:00:00 14.9 13 Norte 24 Norte 0 916 0.7 49
2019-10-09 19:00:00 19.9 14 Norte 24 Norte 0 915.5 -0.2 34
2019-10-09 18:00:00 20.8 9 Oeste 18 Sudoeste 0 915.2 -0.8 30
2019-10-09 17:00:00 20.8 11 Sudeste 21 Sur 0 915.3 -1.1 27
2019-10-09 16:00:00 19.9 6 Sur 18 Sur 0 915.7 -1.2 28
2019-10-09 15:00:00 18.5 10 Sur 17 Sudeste 0 916 -1.3 28
2019-10-09 14:00:00 17.7 4 Sudeste 17 Nordeste 0 916.4 -0.7 29
2019-10-09 13:00:00 16.2 7 Este 22 Nordeste 0 916.9 0.1 34
2019-10-09 12:00:00 14.5 8 Norte 15 Norte 0 917.3 0.9 44
2019-10-09 11:00:00 12.2 7 Oeste 17 Oeste 0 917.1 1 56
2019-10-09 10:00:00 9.4 7 Noroeste 15 Noroeste 0 916.8 1.1 71
2019-10-09 09:00:00 6.2 11 Oeste 17 Noroeste 0 916.4 1.3 86
2019-10-09 08:00:00 6.6 9 Oeste 18 Noroeste 0 916.1 1.1 84
2019-10-09 07:00:00 7.7 13 Oeste 18 Oeste 0 915.7 0.9 83
2019-10-09 06:00:00 8.3 12 Noroeste 15 Noroeste 0 915.1 0.4 83
2019-10-09 05:00:00 9.8 10 Noroeste 18 Noroeste 0 915 0.7 85
2019-10-09 04:00:00 10.5 12 Noroeste 18 Oeste 0 914.8 0.3 91
2019-10-09 03:00:00 11.4 6 Oeste 15 Oeste 0 914.7 0.2 88
2019-10-09 02:00:00 13 5 Noroeste 26 Oeste 0 914.3 0.3 85
2019-10-09 01:00:00 14.1 16 Oeste 30 Oeste 0 914.5 0.6 84
2019-10-09 00:00:00 15.3 19 Oeste 32 Oeste 0 914.5 0.8 81
2019-10-08 23:00:00 16.7 21 Oeste 33 Oeste 0 914 0.6 75
2019-10-08 22:00:00 17.4 17 Oeste 28 Oeste 0 913.9 0.6 71
2019-10-08 21:00:00 18.7 17 Oeste 30 Oeste 0 913.7 0.5 67
2019-10-08 20:00:00 20.2 11 Oeste 28 Oeste 0 913.4 0 60
2019-10-08 19:00:00 22.8 17 Oeste 35 Oeste 0 913.3 -0.5 49
2019-10-08 18:00:00 24.2 21 Oeste 39 Oeste 0 913.2 -0.9 43
2019-10-08 17:00:00 24.7 19 Oeste 33 Oeste 0 913.4 -1.2 41
2019-10-08 16:00:00 24.5 20 Oeste 41 Sudoeste 0 913.8 -1.3 42
2019-10-08 15:00:00 23.9 26 Oeste 41 Oeste 0 914.1 -1.4 44
2019-10-08 14:00:00 23.3 23 Oeste 37 Oeste 0 914.6 -1.4 45
2019-10-08 13:00:00 22.4 19 Oeste 32 Sudoeste 0 915.1 -0.6 45
2019-10-08 12:00:00 21.1 5 Este 11 Este 0 915.5 0 45
2019-10-08 11:00:00 18.1 3 Este 8 Sudeste 0 916 0.6 45
2019-10-08 10:00:00 14.8 3 Norte 8 Norte 0 915.7 0.1 56
2019-10-08 09:00:00 10.5 5 Norte 11 Norte 0 915.5 0 69
2019-10-08 08:00:00 10.4 3 Noroeste 9 Noroeste 0 915.4 -0.5 68
2019-10-08 07:00:00 11.3 7 Noroeste 13 Norte 0 915.6 -0.6 65
2019-10-08 06:00:00 11.8 7 Norte 13 Norte 0 915.5 -0.9 63
2019-10-08 05:00:00 11.6 9 Norte 15 Norte 0 915.9 -0.6 65
2019-10-08 04:00:00 12.4 13 Norte 15 Norte 0 916.2 -0.6 62
2019-10-08 03:00:00 12.2 12 Norte 15 Norte 0 916.4 -0.5 62
2019-10-08 02:00:00 12.7 9 Norte 15 Norte 0 916.5 -0.4 61
2019-10-08 01:00:00 13.8 5 Norte 13 Norte 0 916.8 0.3 57
2019-10-08 00:00:00 15.7 8 Norte 11 Nordeste 0 916.9 0.6 50
2019-10-07 23:00:00 18 5 Noroeste 15 Oeste 0 916.9 0.9 44
2019-10-07 22:00:00 18 10 Oeste 13 Sudoeste 0 916.5 0.8 42
2019-10-07 21:00:00 19.7 10 Sudoeste 15 Sudoeste 0 916.3 0.7 38
2019-10-07 20:00:00 23.3 8 Sur 17 Sudeste 0 916 0.2 29
2019-10-07 19:00:00 25.5 14 Sudeste 22 Sur 0 915.7 -0.4 26
2019-10-07 18:00:00 26.9 10 Sur 22 Sudoeste 0 915.6 -0.9 25
2019-10-07 17:00:00 26.3 15 Sudoeste 26 Sur 0 915.8 -1.4 25
2019-10-07 16:00:00 25.4 15 Sudoeste 22 Sudoeste 0 916.1 -1.3 24
2019-10-07 15:00:00 24.1 10 Sudoeste 21 Sudoeste 0 916.5 -1.3 24
2019-10-07 14:00:00 22.6 11 Sur 21 Sur 0 917.2 -0.8 29
2019-10-07 13:00:00 20.1 8 Sudoeste 18 Sudoeste 0 917.4 -0.7 35
2019-10-07 12:00:00 16.7 13 Sudoeste 18 Sudoeste 0 917.8 -0.1 56
2019-10-07 11:00:00 14.2 2 Sur 9 Nordeste 0 918 0.4 69
2019-10-07 10:00:00 11.2 5 Nordeste 9 Nordeste 0 918.1 0.9 76
2019-10-07 09:00:00 8.1 3 Oeste 9 Oeste 0 917.9 0.9 84
2019-10-07 08:00:00 7.8 8 Oeste 9 Oeste 0 917.6 0.6 87
2019-10-07 07:00:00 8.5 4 Oeste 8 Noroeste 0 917.2 0.1 80
2019-10-07 06:00:00 8.8 6 Noroeste 9 Norte 0 917 -0.4 77
2019-10-07 05:00:00 9 3 Nordeste 9 Nordeste 0 917 -0.7 78
2019-10-07 04:00:00 10.9 3 Nordeste 9 Oeste 0 917.1 -0.8 75
2019-10-07 03:00:00 11.9 3 Sudoeste 9 Oeste 0 917.4 -0.5 65
2019-10-07 02:00:00 12.6 7 Oeste 11 Sudoeste 0 917.7 -0.3 63
2019-10-07 01:00:00 12.5 4 Oeste 13 Sur 0 917.9 0.7 64
2019-10-07 00:00:00 14.4 9 Nordeste 11 Nordeste 0 917.9 1 57
2019-10-06 23:00:00 14.9 7 Nordeste 18 Oeste 0 918 1.6 52
2019-10-06 22:00:00 15.5 11 Oeste 15 Oeste 0 917.2 1.2 45
2019-10-06 21:00:00 17.6 13 Oeste 24 Oeste 0 916.9 1.2 44
2019-10-06 20:00:00 19.8 15 Oeste 24 Oeste 0 916.4 0.5 42
2019-10-06 19:00:00 22.8 14 Oeste 28 Oeste 0 916 -0.4 32
2019-10-06 18:00:00 23.9 18 Oeste 32 Oeste 0 915.7 -0.8 25
2019-10-06 17:00:00 23.9 19 Oeste 33 Sudoeste 0 915.9 -1.3 20
2019-10-06 16:00:00 23 15 Sudoeste 26 Sudoeste 0 916.4 -1 35
2019-10-06 15:00:00 22.1 12 Oeste 30 Sudoeste 0 916.5 -1.1 33
2019-10-06 14:00:00 20.4 11 Sur 28 Sur 0 917.2 -0.8 43
2019-10-06 13:00:00 18.9 10 Sur 18 Sur 0 917.4 0 54
2019-10-06 12:00:00 16.4 9 Sudeste 15 Sudeste 0 917.6 0.9 58
2019-10-06 11:00:00 13.5 4 Sudeste 8 Sudeste 0 918 1.7 69
2019-10-06 10:00:00 11.1 2 Oeste 8 Noroeste 0 917.4 1.4 77
2019-10-06 09:00:00 8.7 6 Norte 11 Oeste 0 916.7 1 86
2019-10-06 08:00:00 7.5 6 Oeste 9 Noroeste 0 916.3 0.8 82
2019-10-06 07:00:00 8.8 7 Noroeste 9 Noroeste 0 916 0.3 78
2019-10-06 06:00:00 8.7 6 Noroeste 17 Noroeste 0 915.7 0.2 72
2019-10-06 05:00:00 9.3 8 Oeste 11 Oeste 0 915.5 0.2 67
2019-10-06 04:00:00 10.8 7 Sudoeste 13 Noroeste 0 915.7 0.6 67
2019-10-06 03:00:00 11 8 Noroeste 17 Noroeste 0 915.5 0.5 71
2019-10-06 02:00:00 11.7 11 Noroeste 15 Noroeste 0 915.3 0.5 71
2019-10-06 01:00:00 12.3 7 Noroeste 13 Noroeste 0 915.1 1 73
2019-10-06 00:00:00 13.6 9 Oeste 17 Noroeste 0 915 1.2 69
2019-10-05 23:00:00 15.6 13 Oeste 22 Noroeste 0 914.8 1.1 65
2019-10-05 22:00:00 16.8 4 Norte 22 Oeste 0 914.1 1.1 60
2019-10-05 21:00:00 18.1 15 Noroeste 26 Oeste 0 913.8 1.1 54
2019-10-05 20:00:00 19.7 14 Oeste 24 Oeste 0 913.7 0.8 33
2019-10-05 19:00:00 22.7 15 Oeste 22 Oeste 0 913 -0.1 36
2019-10-05 18:00:00 23.5 11 Sudoeste 21 Sudoeste 0 912.7 -0.8 38
2019-10-05 17:00:00 23 12 Sur 22 Sudoeste 0 912.9 -1.3 38
2019-10-05 16:00:00 22 12 Sudoeste 26 Sudoeste 0 913.1 -1.3 44
2019-10-05 15:00:00 20.9 13 Sur 22 Sudoeste 0 913.5 -1.2 51
2019-10-05 14:00:00 19.8 12 Sudoeste 21 Sudoeste 0 914.2 -0.4 56
2019-10-05 13:00:00 18.2 7 Sudoeste 18 Sur 0 914.4 0.1 63
2019-10-05 12:00:00 17.3 5 Sur 13 Oeste 0 914.7 0.8 67
2019-10-05 11:00:00 15.6 4 Sudeste 9 Sudeste 0 914.6 1 73
2019-10-05 10:00:00 12.3 2 Norte 9 Noroeste 0 914.3 0.8 85
2019-10-05 09:00:00 8.3 7 Noroeste 9 Noroeste 0 913.9 0.4 90
2019-10-05 08:00:00 8.4 3 Noroeste 8 Noroeste 0 913.6 0 89
2019-10-05 07:00:00 9.5 0 Calma 5 Nordeste 0 913.5 -0.4 90
2019-10-05 06:00:00 9.2 4 Oeste 9 Norte 0 913.5 -0.6 89
2019-10-05 05:00:00 10.1 4 Noroeste 9 Noroeste 0 913.6 -0.2 87
2019-10-05 04:00:00 10.4 7 Noroeste 9 Norte 0 913.9 0.2 86
2019-10-05 03:00:00 10.6 6 Noroeste 8 Noroeste 0 914.1 0.4 85
2019-10-05 02:00:00 11.9 0 Calma 11 Norte 0 913.8 0.2 82
2019-10-05 01:00:00 12 9 Noroeste 13 Noroeste 0 913.7 0.3 81
2019-10-05 00:00:00 12.8 10 Noroeste 17 Noroeste 0 913.7 0.4 78
2019-10-04 23:00:00 14 12 Noroeste 17 Noroeste 0 913.6 0.7 75
2019-10-04 22:00:00 15.8 12 Norte 15 Noroeste 0 913.4 1.1 67
2019-10-04 21:00:00 18.8 2 Oeste 11 Sur 0 913.3 1.1 56
2019-10-04 20:00:00 21.3 6 Sur 17 Sudoeste 0 912.9 0.6 46
2019-10-04 19:00:00 22.8 14 Sudoeste 33 Sur 0 912.3 -0.6 41
2019-10-04 18:00:00 23.5 14 Sudoeste 24 Sudoeste 0 912.2 -1.2 39
2019-10-04 17:00:00 23.5 13 Sudoeste 21 Sudoeste 0 912.3 -2 38
2019-10-04 16:00:00 23.2 15 Oeste 33 Sudoeste 0 912.9 -1.7 38
2019-10-04 15:00:00 22.3 13 Sudoeste 26 Sudoeste 0 913.4 -1.7 42
2019-10-04 14:00:00 21 11 Sur 26 Sur 0 914.3 -0.8 49
2019-10-04 13:00:00 20.1 10 Sur 21 Oeste 0 914.6 -0.3 55
2019-10-04 12:00:00 18.3 7 Noroeste 15 Noroeste 0 915.1 0.4 58
2019-10-04 11:00:00 15.6 6 Este 9 Nordeste 0 915.1 0.7 69
2019-10-04 10:00:00 13.7 2 Nordeste 5 Nordeste 0 914.9 0.2 80
2019-10-04 09:00:00 9.5 0 Calma 8 Norte 0 914.7 0.1 92
2019-10-04 08:00:00 9.4 7 Norte 13 Noroeste 0 914.4 -0.3 91
2019-10-04 07:00:00 9.9 4 Noroeste 9 Norte 0 914.7 0 89
2019-10-04 06:00:00 10.2 5 Noroeste 11 Noroeste 0 914.6 -0.5 90
2019-10-04 05:00:00 10.7 7 Norte 11 Norte 0 914.7 -0.6 86
2019-10-04 04:00:00 10.6 8 Norte 11 Norte 0 914.7 -1.2 87
2019-10-04 03:00:00 12.2 5 Nordeste 11 Nordeste 0 915.1 -0.6 83
2019-10-04 02:00:00 13.8 4 Norte 11 Norte 0 915.3 -0.3 79
2019-10-04 01:00:00 13.6 9 Oeste 13 Oeste 0 915.9 0.8 74
2019-10-04 00:00:00 13.9 9 Noroeste 18 Noroeste 0 915.7 1.2 73
2019-10-03 23:00:00 15.5 8 Norte 22 Noroeste 0 915.6 1.3 67
2019-10-03 22:00:00 17 9 Noroeste 30 Oeste 0 915.1 1.1 63
2019-10-03 21:00:00 18.2 19 Oeste 37 Noroeste 0 914.5 0.3 55
2019-10-03 20:00:00 20.3 17 Oeste 28 Oeste 0 914.3 0 40
2019-10-03 19:00:00 23.1 19 Oeste 28 Oeste 0 914 -0.8 32
2019-10-03 18:00:00 24.1 17 Sudoeste 26 Sudoeste 0 914.2 -0.9 27
2019-10-03 17:00:00 24.2 17 Sudoeste 32 Sudoeste 0 914.3 -1.5 24
2019-10-03 16:00:00 23.3 13 Sur 26 Sudoeste 0 914.8 -1.3 26
2019-10-03 15:00:00 21.6 16 Oeste 28 Oeste 0 915.1 -1.4 29
2019-10-03 14:00:00 20 17 Sudoeste 28 Sudoeste 0 915.8 -0.8 39
2019-10-03 13:00:00 17.6 17 Sudoeste 26 Sudoeste 0 916.1 -0.1 54
2019-10-03 12:00:00 15.1 8 Sur 15 Sudoeste 0 916.5 0.7 63
2019-10-03 11:00:00 12.7 4 Sur 13 Sudoeste 0 916.6 0.7 75
2019-10-03 10:00:00 9.6 3 Este 5 Sudeste 0 916.2 0.1 85
2019-10-03 09:00:00 6.6 3 Noroeste 8 Noroeste 0 915.8 -0.3 89
2019-10-03 08:00:00 7.3 4 Norte 11 Noroeste 0 915.9 -0.4 89
2019-10-03 07:00:00 7.7 8 Noroeste 11 Noroeste 0 916.1 -0.2 88
2019-10-03 06:00:00 7.8 7 Norte 9 Norte 0 916.1 -0.7 86
2019-10-03 05:00:00 7.4 6 Oeste 9 Oeste 0 916.3 -0.5 85
2019-10-03 04:00:00 8.2 3 Noroeste 5 Oeste 0 916.3 -0.6 82
2019-10-03 03:00:00 8.9 3 Norte 9 Norte 0 916.8 -0.4 80
2019-10-03 02:00:00 9.3 7 Norte 11 Norte 0 916.8 -0.1 79
2019-10-03 01:00:00 9.9 4 Norte 9 Norte 0 916.9 0.2 77
2019-10-03 00:00:00 10.9 5 Norte 26 Este 0 917.2 1 74
2019-10-02 23:00:00 11.5 8 Norte 11 Norte 0 916.9 0.9 69
2019-10-02 22:00:00 12.5 10 Norte 11 Norte 0 916.7 1.2 62
2019-10-02 21:00:00 16 5 Norte 11 Sudeste 0 916.2 0.9 50
2019-10-02 20:00:00 18.2 8 Sudeste 13 Sudeste 0 916 0.5 43
2019-10-02 19:00:00 19.6 8 Sudeste 15 Este 0 915.5 -0.2 36
2019-10-02 18:00:00 19.9 8 Nordeste 17 Nordeste 0 915.3 -0.5 34
2019-10-02 17:00:00 19.4 7 Este 21 Nordeste 0 915.5 -0.6 36
2019-10-02 16:00:00 19 10 Nordeste 28 Nordeste 0 915.7 -0.6 38
2019-10-02 15:00:00 18.2 14 Nordeste 28 Nordeste 0 915.8 -0.4 42
2019-10-02 14:00:00 17.2 14 Nordeste 26 Nordeste 0 916.1 0 45
2019-10-02 13:00:00 15.7 8 Nordeste 24 Noroeste 0 916.3 0.8 49
2019-10-02 12:00:00 14.6 5 Norte 18 Oeste 0 916.2 1.5 58
2019-10-02 11:00:00 12.9 12 Oeste 28 Oeste 0 916.1 1.8 65
2019-10-02 10:00:00 10.8 14 Oeste 26 Noroeste 0 915.5 1.5 75
2019-10-02 09:00:00 7.4 14 Oeste 21 Oeste 0 914.7 0.8 87
2019-10-02 08:00:00 6.9 12 Oeste 26 Oeste 0 914.3 0.3 85
2019-10-02 07:00:00 7.1 13 Oeste 24 Oeste 0 914 0.2 86
2019-10-02 06:00:00 7.4 11 Oeste 17 Oeste 0 913.9 0 86
2019-10-02 05:00:00 8.3 12 Oeste 22 Noroeste 0 914 0.2 85
2019-10-02 04:00:00 9.2 14 Oeste 28 Oeste 0 913.8 0.1 84
2019-10-02 03:00:00 9.3 12 Oeste 22 Oeste 0 913.9 0.2 83
2019-10-02 02:00:00 10.3 19 Oeste 30 Oeste 0 913.8 0.5 80
2019-10-02 01:00:00 11 19 Oeste 30 Oeste 0 913.7 0.8 75
2019-10-02 00:00:00 11.6 19 Oeste 26 Oeste 0 913.7 1.4 74
2019-10-01 23:00:00 12.4 19 Oeste 28 Oeste 0 913.3 1.6 67
2019-10-01 22:00:00 13.4 18 Oeste 30 Oeste 0 912.9 1.5 63
2019-10-01 21:00:00 15.3 21 Oeste 35 Oeste 0 912.3 1.5 58
2019-10-01 20:00:00 17.1 20 Oeste 45 Oeste 0 911.7 0.7 51
2019-10-01 19:00:00 19 27 Oeste 50 Oeste 0 911.4 0.3 43
2019-10-01 18:00:00 20.1 30 Oeste 50 Oeste 0 910.8 -0.3 43
2019-10-01 17:00:00 20.6 31 Oeste 48 Sudoeste 0 911 -0.5 41
2019-10-01 16:00:00 20.4 29 Oeste 54 Sudoeste 0 911.1 -0.6 41
2019-10-01 15:00:00 19.7 32 Oeste 55 Sudoeste 0 911.1 -1.1 46
2019-10-01 14:00:00 18.9 33 Oeste 52 Oeste 0 911.5 -0.6 52
2019-10-01 13:00:00 17.8 38 Oeste 52 Oeste 0 911.7 0.2 57
2019-10-01 12:00:00 17.1 24 Oeste 45 Oeste 0 912.2 1.4 69
2019-10-01 11:00:00 14.7 20 Oeste 41 Oeste 0 912.1 1.6 81
2019-10-01 10:00:00 13.8 18 Oeste 26 Oeste 0 911.5 1.2 83
2019-10-01 09:00:00 12.4 12 Oeste 33 Oeste 0 910.8 0.7 88
2019-10-01 08:00:00 12.5 17 Oeste 33 Oeste 0 910.5 0.3 84
2019-10-01 07:00:00 13.3 23 Oeste 35 Oeste 0 910.3 -0.3 83
2019-10-01 06:00:00 13.9 22 Oeste 39 Oeste 0 910.1 -1 85
2019-10-01 05:00:00 13.5 13 Oeste 21 Oeste 0 910.2 -1.1 89
2019-10-01 04:00:00 14.1 0 Calma 8 Sudoeste 0 910.6 -1.1 85
2019-10-01 03:00:00 14.2 4 Sudoeste 8 Oeste 0 911.1 -0.9 85
2019-10-01 02:00:00 14.1 9 Noroeste 18 Noroeste 0 911.3 -0.7 84
2019-10-01 01:00:00 14.8 12 Noroeste 18 Noroeste 0 911.7 -0.1 81
2019-10-01 00:00:00 16 12 Noroeste 18 Oeste 0 912 0.6 74
2019-09-30 23:00:00 15.3 12 Oeste 17 Oeste 0 912 0.8 84
2019-09-30 22:00:00 17.9 12 Oeste 21 Oeste 0 911.8 0.3 71
2019-09-30 21:00:00 18.5 10 Noroeste 17 Noroeste 0 911.4 -0.2 78
2019-09-30 20:00:00 21.1 10 Norte 13 Norte 1.2 911.2 -1.2 69
2019-09-30 19:00:00 22.9 9 Este 22 Sur 0 911.5 -1.6 50
2019-09-30 18:00:00 23.8 8 Sudeste 22 Sur 0 911.6 -2.1 47
2019-09-30 17:00:00 24.6 5 Sudoeste 21 Sudoeste 0 912.4 -2.2 45
2019-09-30 16:00:00 23.6 9 Sur 22 Sur 0 913.1 -2.1 48
2019-09-30 15:00:00 22.4 9 Sur 18 Sur 0 913.7 -1.7 53
2019-09-30 14:00:00 21.1 10 Sur 21 Sur 0 914.6 -1 59
2019-09-30 13:00:00 19.5 12 Sur 21 Sudoeste 0 915.2 -0.2 66
2019-09-30 12:00:00 17 4 Sudeste 9 Sur 0 915.4 0.3 78
2019-09-30 11:00:00 14.1 5 Sudeste 11 Sudeste 0 915.6 0.9 84
2019-09-30 10:00:00 12.1 5 Este 8 Este 0 915.4 0.9 85
2019-09-30 09:00:00 9.4 4 Este 9 Sudoeste 0 915.1 0.6 91
2019-09-30 08:00:00 9.4 5 Noroeste 8 Noroeste 0 914.7 0 90
2019-09-30 07:00:00 9.5 5 Noroeste 15 Norte 0 914.5 -0.6 89
2019-09-30 06:00:00 11.4 9 Noroeste 15 Noroeste 0 914.5 -0.7 87
2019-09-30 05:00:00 11.5 5 Noroeste 15 Noroeste 0 914.7 -0.5 92
2019-09-30 04:00:00 12.2 0 Calma 17 Oeste 0 915.1 -0.5 91
2019-09-30 03:00:00 13 14 Oeste 21 Oeste 0 915.2 -0.3 91
2019-09-30 02:00:00 13.7 17 Oeste 26 Oeste 0 915.2 -0.1 89
2019-09-30 01:00:00 14 4 Oeste 21 Oeste 0 915.6 0.6 85
2019-09-30 00:00:00 14.5 15 Oeste 22 Oeste 0 915.5 1.2 83
2019-09-29 23:00:00 15.8 17 Oeste 33 Oeste 0 915.3 1.5 76
2019-09-29 22:00:00 17 23 Oeste 45 Oeste 0 915 1.3 79
2019-09-29 21:00:00 18.1 26 Oeste 42 Oeste 0 914.3 0.6 74
2019-09-29 20:00:00 20.5 21 Noroeste 33 Noroeste 0 913.8 0 59
2019-09-29 19:00:00 23 19 Oeste 41 Oeste 0 913.7 -0.1 48
2019-09-29 18:00:00 23.9 27 Oeste 42 Oeste 0 913.7 -0.7 45
2019-09-29 17:00:00 24.5 23 Oeste 45 Oeste 0 913.8 -1.2 42
2019-09-29 16:00:00 24.4 21 Oeste 46 Oeste 0 913.8 -1.5 40
2019-09-29 15:00:00 24.1 31 Oeste 46 Oeste 0 914.4 -1 34
2019-09-29 14:00:00 22.7 21 Sudoeste 41 Sudoeste 0 915 -0.2 36
2019-09-29 13:00:00 21.1 23 Sudoeste 37 Oeste 0 915.3 0.4 33
2019-09-29 12:00:00 19.2 16 Sudoeste 28 Oeste 0 915.4 0.9 32
2019-09-29 11:00:00 16.4 15 Sudoeste 22 Sudoeste 0 915.2 1 40
2019-09-29 10:00:00 12 6 Nordeste 13 Nordeste 0 914.9 0.7 64
2019-09-29 09:00:00 7.8 3 Sudoeste 8 Oeste 0 914.5 0.4 74
2019-09-29 08:00:00 8 0 Calma 8 Noroeste 0 914.2 -0.1 70
2019-09-29 07:00:00 7.6 3 Norte 9 Norte 0 914.2 -0.5 71
2019-09-29 06:00:00 8.5 5 Norte 9 Este 0 914.1 -0.7 68
2019-09-29 05:00:00 8.7 4 Norte 11 Norte 0 914.3 -0.7 68
2019-09-29 04:00:00 10 5 Norte 9 Norte 0 914.7 -0.5 61
2019-09-29 03:00:00 9.4 6 Noroeste 11 Noroeste 0 914.8 -0.6 66
2019-09-29 02:00:00 11 7 Norte 11 Norte 0 915 -0.3 63
2019-09-29 01:00:00 11.1 8 Noroeste 13 Noroeste 0 915.2 0.1 68
2019-09-29 00:00:00 11.3 11 Norte 17 Norte 0 915.4 0.2 66
2019-09-28 23:00:00 12.6 9 Norte 13 Norte 0 915.3 0.4 60
2019-09-28 22:00:00 15.6 2 Este 9 Norte 0 915.1 0 49
2019-09-28 21:00:00 18.6 5 Noroeste 9 Noroeste 0 915.2 -0.1 43
2019-09-28 20:00:00 21.4 6 Sur 15 Sur 0 914.9 -0.7 30
2019-09-28 19:00:00 22.7 10 Sur 17 Sudoeste 0 915.1 -0.9 23
2019-09-28 18:00:00 22.3 13 Sur 22 Sudoeste 0 915.3 -1.3 30
2019-09-28 17:00:00 22.3 12 Sudoeste 21 Sudoeste 0 915.6 -1.9 32
2019-09-28 16:00:00 21.4 8 Sur 18 Sur 0 916 -2 33
2019-09-28 15:00:00 20 9 Sudoeste 18 Sudoeste 0 916.6 -1.8 41
2019-09-28 14:00:00 18.3 7 Sur 18 Sudeste 0 917.5 -0.9 53
2019-09-28 13:00:00 16.5 5 Oeste 15 Sudoeste 0 918 0.1 60
2019-09-28 12:00:00 14.2 5 Nordeste 9 Nordeste 0 918.4 1 71
2019-09-28 11:00:00 11.9 5 Nordeste 11 Nordeste 0 918.4 1.2 82
2019-09-28 10:00:00 11.1 5 Nordeste 13 Norte 0 917.9 0.8 90
2019-09-28 09:00:00 10 7 Norte 11 Norte 0 917.4 0.2 98
2019-09-28 08:00:00 9.8 4 Norte 9 Norte 0 917.2 0.1 98
2019-09-28 07:00:00 9.3 8 Norte 15 Nordeste 0 917.1 0 97
2019-09-28 06:00:00 8.5 9 Nordeste 13 Nordeste 0 917.2 0.2 94
2019-09-28 05:00:00 7 6 Norte 9 Norte 0 917.1 0.2 88
2019-09-28 04:00:00 8 5 Norte 8 Nordeste 0 917.1 0 86
2019-09-28 03:00:00 8.6 5 Nordeste 13 Noroeste 0 917 0.2 86
2019-09-28 02:00:00 9.5 10 Noroeste 13 Noroeste 0 916.9 0.3 84
2019-09-28 01:00:00 11.1 5 Noroeste 17 Noroeste 0 917.1 0.9 80
2019-09-28 00:00:00 13 7 Noroeste 22 Oeste 0 916.8 1.1 74
2019-09-27 23:00:00 14 11 Noroeste 35 Oeste 0 916.6 1.2 70
2019-09-27 22:00:00 14.8 23 Oeste 39 Oeste 0 916.2 0.8 67
2019-09-27 21:00:00 15.6 22 Oeste 33 Oeste 0 915.7 0.4 63
2019-09-27 20:00:00 17.5 21 Oeste 39 Oeste 0 915.4 0.1 55
2019-09-27 19:00:00 19.1 25 Oeste 39 Oeste 0 915.4 0 53
2019-09-27 18:00:00 19.9 30 Oeste 45 Oeste 0 915.3 -0.6 52
2019-09-27 17:00:00 20.6 29 Oeste 50 Oeste 0 915.3 -1.1 51
2019-09-27 16:00:00 19.5 26 Oeste 52 Oeste 0 915.4 -1 59
2019-09-27 15:00:00 20.6 27 Oeste 46 Oeste 0 915.9 -0.6 53
2019-09-27 14:00:00 19.8 28 Oeste 48 Oeste 0 916.4 0 56
2019-09-27 13:00:00 19.1 24 Oeste 35 Sudoeste 0 916.4 0.4 57
2019-09-27 12:00:00 18.4 17 Oeste 33 Oeste 0 916.5 0.6 59
2019-09-27 11:00:00 16.4 22 Oeste 33 Oeste 0 916.4 0.7 68
2019-09-27 10:00:00 14.6 17 Oeste 28 Oeste 0 916 0.5 71
2019-09-27 09:00:00 9.1 8 Noroeste 13 Noroeste 0 915.9 0.5 80
2019-09-27 08:00:00 9.4 6 Oeste 28 Oeste 0 915.7 0.1 82
2019-09-27 07:00:00 9.9 19 Oeste 32 Oeste 0 915.5 -0.3 82
2019-09-27 06:00:00 9.8 21 Oeste 33 Oeste 0 915.4 -0.7 83
2019-09-27 05:00:00 9.7 15 Oeste 22 Oeste 0 915.6 -0.4 82
2019-09-27 04:00:00 10 18 Oeste 22 Oeste 0 915.8 -0.2 80
2019-09-27 03:00:00 11.3 8 Oeste 21 Oeste 0 916.1 0.2 74
2019-09-27 02:00:00 12.6 12 Oeste 28 Oeste 0 916 0.5 70
2019-09-27 01:00:00 14.2 19 Oeste 35 Oeste 0 916 0.6 62
2019-09-27 00:00:00 15.3 26 Oeste 39 Oeste 0 915.9 0.9 56
2019-09-26 23:00:00 15.9 20 Oeste 32 Oeste 0 915.5 0.8 50
2019-09-26 22:00:00 16.8 14 Oeste 30 Oeste 0 915.4 1.1 45
2019-09-26 21:00:00 18 18 Oeste 26 Oeste 0 915 0.8 43
2019-09-26 20:00:00 20.5 14 Oeste 30 Oeste 0 914.7 0.3 36
2019-09-26 19:00:00 23.5 19 Oeste 39 Oeste 0 914.3 -0.5 24
2019-09-26 18:00:00 24.4 25 Oeste 41 Oeste 0 914.2 -0.8 18
2019-09-26 17:00:00 24.1 15 Sudoeste 28 Sudoeste 0 914.4 -1.2 27
2019-09-26 16:00:00 22.5 11 Sudoeste 28 Sur 0 914.8 -1.2 32
2019-09-26 15:00:00 21.4 12 Sur 24 Sudoeste 0 915 -1 35
2019-09-26 14:00:00 19.9 14 Sur 26 Sudoeste 0 915.6 -0.3 41
2019-09-26 13:00:00 18.3 11 Sudoeste 22 Sudoeste 0 916 0.4 46
2019-09-26 12:00:00 16.7 8 Sudoeste 22 Sudoeste 0 916 0.6 56
2019-09-26 11:00:00 14.6 14 Oeste 22 Oeste 0 915.9 0.8 57
2019-09-26 10:00:00 11.2 3 Nordeste 8 Sudoeste 0 915.6 0.9 73
2019-09-26 09:00:00 8.6 6 Sudoeste 8 Sudoeste 0 915.4 0.6 83
2019-09-26 08:00:00 8.2 0 Calma 15 Noroeste 0 915.1 0.3 84
2019-09-26 07:00:00 8.6 6 Noroeste 13 Noroeste 0 914.7 0 86
2019-09-26 06:00:00 9.4 2 Oeste 8 Oeste 0 914.8 -0.2 81
2019-09-26 05:00:00 9.6 3 Nordeste 15 Norte 0 914.8 -0.1 81
2019-09-26 04:00:00 11.1 6 Norte 21 Oeste 0 914.7 -0.4 79
2019-09-26 03:00:00 11.5 11 Noroeste 18 Noroeste 0 915 -0.1 77
2019-09-26 02:00:00 11.8 5 Norte 18 Oeste 0 914.9 0 77
2019-09-26 01:00:00 12.5 11 Oeste 24 Oeste 0 915.1 0.5 75
2019-09-26 00:00:00 13 4 Noroeste 22 Noroeste 0 915.1 0.8 73
2019-09-25 23:00:00 13.7 9 Oeste 24 Oeste 0 914.9 0.7 71
2019-09-25 22:00:00 14.3 13 Oeste 22 Oeste 0 914.6 0.5 69
2019-09-25 21:00:00 15.5 10 Oeste 17 Oeste 0 914.3 0.2 63
2019-09-25 20:00:00 17.6 10 Oeste 26 Oeste 0 914.2 0 55
2019-09-25 19:00:00 18.2 18 Oeste 28 Oeste 0 914.1 -0.4 54
2019-09-25 18:00:00 19.1 15 Oeste 28 Oeste 0 914.1 -0.8 51
2019-09-25 17:00:00 19.6 18 Oeste 33 Oeste 0 914.2 -1.2 48
2019-09-25 16:00:00 19.1 15 Sudoeste 26 Oeste 0 914.5 -1.3 49
2019-09-25 15:00:00 17.8 17 Oeste 30 Sudoeste 0 914.9 -1.1 52
2019-09-25 14:00:00 17.2 14 Oeste 28 Sudoeste 0 915.4 -0.2 52
2019-09-25 13:00:00 16.2 11 Sur 22 Sudoeste 0 915.8 0.4 55
2019-09-25 12:00:00 14.9 10 Oeste 22 Oeste 0 916 0.7 62
2019-09-25 11:00:00 13.5 12 Oeste 42 Oeste 0 915.6 1.1 67
2019-09-25 10:00:00 11.2 14 Oeste 24 Oeste 0 915.4 1 79
2019-09-25 09:00:00 8.6 10 Oeste 18 Oeste 0 915.3 1 91
2019-09-25 08:00:00 8.2 12 Oeste 21 Oeste 0 914.5 0.4 88
2019-09-25 07:00:00 8.5 15 Oeste 21 Oeste 0 914.4 -0.1 88
2019-09-25 06:00:00 8.5 9 Oeste 24 Oeste 0 914.3 -0.2 85
2019-09-25 05:00:00 9 20 Oeste 28 Oeste 0 914.1 -0.5 82
2019-09-25 04:00:00 10 15 Oeste 28 Oeste 0 914.5 0 77
2019-09-25 03:00:00 9.6 14 Oeste 24 Oeste 0 914.5 -0.1 79
2019-09-25 02:00:00 10.3 13 Oeste 26 Oeste 0 914.6 -0.1 76
2019-09-25 01:00:00 11.1 15 Oeste 30 Oeste 0 914.5 0.2 71
2019-09-25 00:00:00 11.8 24 Oeste 37 Oeste 0 914.6 1 66
2019-09-24 23:00:00 13.1 17 Oeste 41 Oeste 0 914.7 1.6 59
2019-09-24 22:00:00 13.7 31 Oeste 45 Oeste 0 914.3 1.8 62
2019-09-24 21:00:00 15.1 15 Oeste 32 Oeste 0 913.6 1.1 62
2019-09-24 20:00:00 17 23 Oeste 46 Oeste 0 913.1 0.8 52
2019-09-24 19:00:00 19 30 Oeste 54 Oeste 0 912.5 0 45
2019-09-24 18:00:00 19.7 28 Oeste 52 Oeste 0 912.5 -0.5 48
2019-09-24 17:00:00 21.1 31 Oeste 50 Oeste 0 912.3 -1.1 44
2019-09-24 16:00:00 20.8 26 Oeste 42 Oeste 0 912.5 -1.4 51
2019-09-24 15:00:00 19.8 24 Oeste 39 Oeste 0 913 -1.1 54
2019-09-24 14:00:00 19.6 16 Oeste 30 Oeste 0 913.4 -0.6 63
2019-09-24 13:00:00 17.7 10 Sudoeste 21 Oeste 0 913.9 0.3 72
2019-09-24 12:00:00 15.7 9 Sudoeste 17 Sur 0 914.1 0.4 80
2019-09-24 11:00:00 14 11 Sur 17 Sur 0 914 0.5 83
2019-09-24 10:00:00 13 8 Sur 11 Sur 0 913.6 0.3 85
2019-09-24 09:00:00 11.7 4 Este 8 Este 0 913.7 0.9 88
2019-09-24 08:00:00 11.4 4 Nordeste 9 Norte 0 913.5 0.3 89
2019-09-24 07:00:00 11.3 7 Norte 9 Norte 0 913.3 -0.4 89
2019-09-24 06:00:00 11.5 2 Nordeste 8 Sudeste 0 912.8 -1.2 86
2019-09-24 05:00:00 11.3 4 Sudeste 9 Nordeste 0 913.2 -0.9 86
2019-09-24 04:00:00 10.9 6 Norte 11 Norte 0 913.7 -1 89
2019-09-24 03:00:00 11 0 Calma 8 Norte 0 914 -0.9 86
2019-09-24 02:00:00 12 0 Calma 9 Noroeste 0 914.1 -1.1 81
2019-09-24 01:00:00 12.6 5 Noroeste 8 Oeste 0 914.7 -0.5 80
2019-09-24 00:00:00 14.5 4 Nordeste 8 Este 0 914.9 -0.2 70
2019-09-23 23:00:00 15.1 3 Sudeste 9 Noroeste 0 915.2 0.1 66
2019-09-23 22:00:00 15.6 4 Sur 13 Norte 0 915.2 0.2 64
2019-09-23 21:00:00 16.4 7 Norte 9 Norte 0 915.1 -0.2 61
2019-09-23 20:00:00 17.8 6 Norte 9 Norte 0 915.1 -0.3 53
2019-09-23 19:00:00 18.1 3 Sur 13 Sudoeste 0 915 -0.5 52
2019-09-23 18:00:00 18.3 3 Oeste 17 Sudoeste 0 915.3 -0.5 50
2019-09-23 17:00:00 17.4 11 Sudoeste 18 Sur 0 915.4 -0.6 50
2019-09-23 16:00:00 17.9 8 Sur 18 Sur 0 915.5 -1 48
2019-09-23 15:00:00 17.3 8 Sur 24 Sudoeste 0 915.8 -0.4 52
2019-09-23 14:00:00 16.2 8 Sur 21 Sur 0 916 -0.8 59
2019-09-23 13:00:00 15 8 Sur 17 Sudoeste 0 916.5 0.6 64
2019-09-23 12:00:00 13 7 Sudeste 13 Sudeste 0 916.2 0.9 74
2019-09-23 11:00:00 11.4 4 Este 9 Sudeste 0 916.8 1.5 79
2019-09-23 10:00:00 9.4 4 Sudeste 8 Sudeste 0 915.9 1 84
2019-09-23 09:00:00 8.8 3 Nordeste 8 Sudeste 0 915.3 0.7 85
2019-09-23 08:00:00 8.4 4 Sudeste 5 Este 0 915.3 1 84
2019-09-23 07:00:00 8.4 0 Calma -- -- 0 914.9 0.5 85
2019-09-23 06:00:00 8 0 Calma 8 Norte 0 914.6 0.2 86
2019-09-23 05:00:00 8.4 0 Calma 9 Nordeste 0 914.3 0.1 87
2019-09-23 04:00:00 8.9 3 Oeste 8 Noroeste 0 914.4 0.3 83
2019-09-23 03:00:00 9.4 0 Calma 5 Noroeste 0 914.4 0.6 81
2019-09-23 02:00:00 10 0 Calma 8 Nordeste 0 914.2 0.6 77
2019-09-23 01:00:00 10.5 6 Nordeste 9 Nordeste 0 914.1 1 76
2019-09-23 00:00:00 10.4 7 Noroeste 11 Noroeste 0 913.8 1.2 76
2019-09-22 23:00:00 11.7 0 Calma 9 Oeste 0 913.6 1.6 68
2019-09-22 22:00:00 13 5 Oeste 8 Oeste 0 913.1 1.4 63
2019-09-22 21:00:00 13.9 5 Oeste 18 Oeste 0 912.6 1.2 61
2019-09-22 20:00:00 16.6 14 Noroeste 30 Oeste 0 912 0.8 48
2019-09-22 19:00:00 18.3 18 Oeste 30 Oeste 0 911.7 0.6 39
2019-09-22 18:00:00 18.6 21 Oeste 33 Oeste 0 911.4 0.2 37
2019-09-22 17:00:00 18.4 22 Oeste 41 Oeste 0 911.2 -0.1 39
2019-09-22 16:00:00 18 16 Oeste 42 Oeste 0 911.1 -0.2 39
2019-09-22 15:00:00 17.1 25 Oeste 45 Oeste 0 911.2 0 47
2019-09-22 14:00:00 15.5 24 Oeste 35 Oeste 0 911.3 0.4 55
2019-09-22 13:00:00 14.3 19 Oeste 32 Oeste 0 911.3 1.1 59
2019-09-22 12:00:00 13.9 21 Oeste 35 Oeste 0 911.2 1.7 63
2019-09-22 11:00:00 12.1 14 Oeste 22 Oeste 0 910.9 2.1 81
2019-09-22 10:00:00 10.2 7 Sudoeste 18 Sudoeste 0 910.2 2.1 91
2019-09-22 09:00:00 8.9 4 Sudoeste 8 Sudoeste 0 909.5 2 97
2019-09-22 08:00:00 8.9 5 Sur 8 Sur 0 908.8 1.6 95
2019-09-22 07:00:00 9.2 0 Calma 11 Sudoeste 0 908.1 1 96
2019-09-22 06:00:00 9.1 8 Sudoeste 15 Sur 0 907.5 0.7 93
2019-09-22 05:00:00 9.7 12 Sudoeste 18 Oeste 0 907.2 1.1 88
2019-09-22 04:00:00 10.2 11 Oeste 21 Oeste 0 907.1 0.8 86
2019-09-22 03:00:00 10.3 8 Oeste 24 Oeste 0 906.8 1.2 86
2019-09-22 02:00:00 10.8 18 Oeste 30 Oeste 0 906.1 0.7 85
2019-09-22 01:00:00 11.4 17 Oeste 37 Sudoeste 1.1 906.3 0.8 91
2019-09-22 00:00:00 14.7 26 Sur 46 Sur 0 905.6 0 97
2019-09-21 23:00:00 14.6 30 Sur 46 Sur 0 905.4 -0.3 97
2019-09-21 22:00:00 14.7 24 Sur 37 Sur 0 905.5 -0.2 97
2019-09-21 21:00:00 14.9 22 Sur 33 Sur 0.4 905.6 -0.5 94
2019-09-21 20:00:00 15.2 21 Sur 32 Sur 0.2 905.7 -0.6 94
2019-09-21 19:00:00 15.2 17 Sur 28 Sur 0.8 905.7 -1 96
2019-09-21 18:00:00 15.4 16 Sur 33 Sur 0 906.1 -1.1 94
2019-09-21 17:00:00 15.1 19 Sur 32 Sur 0.5 906.3 -1.3 95
2019-09-21 16:00:00 15 14 Sur 24 Sur 0.2 906.7 -1.4 94
2019-09-21 15:00:00 14.8 16 Sur 30 Sur 0 907.2 -1.1 92
2019-09-21 14:00:00 14.4 19 Sur 32 Sur 0.5 907.6 -0.7 93
2019-09-21 13:00:00 14.7 21 Sur 30 Sur 0.2 908.1 0 88
2019-09-21 12:00:00 14.6 19 Sur 26 Sur 0.5 908.3 0.4 86
2019-09-21 11:00:00 15 16 Sur 26 Sur 0 908.3 0.7 81
2019-09-21 10:00:00 14.6 12 Sur 21 Sur 0 908.1 0.5 81
2019-09-21 09:00:00 14.3 13 Sur 21 Sur 0 907.9 -0.1 81
2019-09-21 08:00:00 14.1 15 Sur 22 Sur 0 907.6 -0.4 80
2019-09-21 07:00:00 14.4 11 Sur 22 Sur 0 907.6 -0.9 75
2019-09-21 06:00:00 15 17 Sur 24 Sur 0 908 -0.9 72
2019-09-21 05:00:00 15.3 7 Sudeste 11 Sudeste 0 908 -0.9 88
2019-09-21 04:00:00 15.2 8 Sudeste 15 Este 0 908.5 -0.8 87
2019-09-21 03:00:00 15.3 9 Este 15 Sudeste 0 908.9 -0.2 86
2019-09-21 02:00:00 15.4 9 Sudeste 24 Este 0 908.9 -0.4 86
2019-09-21 01:00:00 15.9 8 Este 13 Nordeste 0 909.3 -0.3 80
2019-09-21 00:00:00 16.5 7 Norte 13 Este 0 909.1 0.3 79
2019-09-20 23:00:00 16.8 11 Este 30 Sudeste 0 909.3 0.8 77
2019-09-20 22:00:00 19 16 Sudeste 28 Sudeste 0 909.6 0.9 61
2019-09-20 21:00:00 21.4 8 Sur 15 Sur 0 908.8 0.1 45
2019-09-20 20:00:00 22.8 10 Sudoeste 30 Sur 0 908.5 -0.6 42
2019-09-20 19:00:00 23.9 20 Sur 37 Sudeste 0 908.7 -1.3 35
2019-09-20 18:00:00 24.5 19 Sur 35 Sudeste 0 908.7 -2 36
2019-09-20 17:00:00 24.1 16 Sudeste 35 Sur 0 909.1 -2.2 38
2019-09-20 16:00:00 23.4 16 Sudeste 26 Sur 0 910 -1.7 48
2019-09-20 15:00:00 22.9 11 Este 26 Sudeste 0 910.7 -1.4 51
2019-09-20 14:00:00 21.1 15 Sudeste 28 Sudeste 0 911.3 -0.9 59
2019-09-20 13:00:00 20.8 14 Este 30 Sudeste 0 911.7 -0.5 60
2019-09-20 12:00:00 19.3 15 Sudeste 28 Este 0 912.1 0.3 63
2019-09-20 11:00:00 18.5 12 Este 17 Este 0 912.2 0.5 67
2019-09-20 10:00:00 17 8 Nordeste 17 Norte 0 912.2 0.5 70
2019-09-20 09:00:00 14.6 9 Norte 17 Norte 0 911.8 -0.2 79
2019-09-20 08:00:00 13.4 12 Norte 17 Norte 0 911.7 -0.6 83
2019-09-20 07:00:00 14.2 7 Norte 13 Norte 0 911.7 -1.1 81
2019-09-20 06:00:00 14.1 12 Norte 17 Norte 0 912 -1.3 82
2019-09-20 05:00:00 14.2 13 Norte 17 Norte 0 912.3 -1 81
2019-09-20 04:00:00 14.6 8 Norte 15 Norte 0 912.8 -0.7 79
2019-09-20 03:00:00 14.9 10 Norte 15 Norte 0 913.3 -0.4 77
2019-09-20 02:00:00 15.4 10 Norte 13 Norte 0 913.3 -0.4 75
2019-09-20 01:00:00 15.5 10 Norte 15 Norte 0 913.5 0.1 73
2019-09-20 00:00:00 16.1 10 Norte 15 Norte 0 913.7 0.7 71
2019-09-19 23:00:00 16.8 10 Norte 13 Norte 0 913.7 1 67
2019-09-19 22:00:00 17.6 9 Norte 13 Norte 0 913.4 0.8 65
2019-09-19 21:00:00 20.2 10 Norte 15 Norte 0 913 0.3 58
2019-09-19 20:00:00 22.7 7 Sur 17 Sur 0 912.7 -0.4 44
2019-09-19 19:00:00 24.4 10 Sur 24 Sur 0 912.6 -0.9 38
2019-09-19 18:00:00 24.8 10 Sudeste 22 Sur 0 912.7 -1.3 40
2019-09-19 17:00:00 24.6 9 Sudeste 22 Sur 0 913.1 -- 42
2019-09-19 16:00:00 24 13 Sur 26 Sur 0 913.5 -- 43
2019-09-19 15:00:00 23.9 11 Sudeste 24 Sur 0 914 -1.2 42
2019-09-19 14:00:00 23 10 Sur 21 Sur -- -- -- 39
2019-09-19 13:00:00 -- -- -- -- -- -- -- -- --
2019-09-19 12:00:00 20.8 5 Sur 13 Sudoeste 0 915.2 0.2 40
2019-09-19 11:00:00 19.1 6 Sudoeste 11 Sudoeste 0 915.4 0.6 45
2019-09-19 10:00:00 16.4 3 Nordeste 8 Norte 0 915.2 0.4 76
2019-09-19 09:00:00 13.2 4 Norte 5 Norte 0 915 0.1 85
2019-09-19 08:00:00 12.8 0 Calma 9 Noroeste 0 914.8 -0.2 87
2019-09-19 07:00:00 13.1 7 Oeste 11 Noroeste 0 914.8 -0.3 87
2019-09-19 06:00:00 13.8 8 Oeste 11 Oeste 0 914.9 -0.3 86
2019-09-19 05:00:00 14.5 5 Noroeste 9 Oeste 0 915 -0.2 85
2019-09-19 04:00:00 14.7 -- -- -- -- 0 915.1 -0.4 85
2019-09-19 03:00:00 15.2 8 Norte 11 Norte 0 915.2 -0.2 85
2019-09-19 02:00:00 15.6 9 Norte 13 Norte 0 915.2 0 85
2019-09-19 01:00:00 16.7 8 Norte 13 Nordeste 0 915.5 0.5 82
2019-09-19 00:00:00 18.6 7 Nordeste 9 Nordeste 0 915.4 1 72
2019-09-18 23:00:00 19.5 9 Nordeste 11 Nordeste 0 915.2 1.3 69
2019-09-18 22:00:00 20.4 4 Norte 8 Noroeste 0 915 1.6 62
2019-09-18 21:00:00 21 4 Oeste 15 Este 0 914.4 1 60
2019-09-18 20:00:00 23.1 9 Este 13 Sudeste 0 913.9 0 46
2019-09-18 19:00:00 23.5 5 Este 15 Este 0 913.4 -0.9 44
2019-09-18 18:00:00 24.2 5 Norte 15 Este 0 913.4 -1.3 42
2019-09-18 17:00:00 23.4 4 Sur 15 Sudeste 0 913.9 -1.1 44
2019-09-18 16:00:00 22.3 3 Sudoeste 15 Nordeste 0 914.3 -0.8 47
2019-09-18 15:00:00 20.9 4 Nordeste 13 Este 0 914.7 -0.3 54
2019-09-18 14:00:00 20 8 Este 21 Este 0 915 0.1 60
2019-09-18 13:00:00 19.4 7 Este 11 Sudeste 0 915.1 0.5 59
2019-09-18 12:00:00 18 3 Nordeste 13 Este 0 915 0.9 67
2019-09-18 11:00:00 15 7 Norte 13 Nordeste 0 914.9 1.7 84
2019-09-18 10:00:00 13.8 4 Noroeste 8 Noroeste 0 914.6 1.5 88
2019-09-18 09:00:00 13.2 7 Sudeste 11 Sudeste 0 914.1 0.5 89
2019-09-18 08:00:00 12.9 5 Oeste 13 Oeste 0 913.2 -0.2 89
2019-09-18 07:00:00 13 9 Oeste 13 Oeste 0 913.1 -0.6 90
2019-09-18 06:00:00 13.3 7 Noroeste 11 Norte 0 913.6 -0.5 91
2019-09-18 05:00:00 13.5 8 Norte 15 Norte 0 913.4 -0.7 91
2019-09-18 04:00:00 14 8 Norte 15 Oeste 0 913.7 -2.1 91
2019-09-18 03:00:00 14.2 11 Nordeste 21 Nordeste 0.3 914.1 -1.3 92
2019-09-18 02:00:00 13.8 14 Norte 30 Noroeste 4.3 914.1 -0.7 92
2019-09-18 01:00:00 14.9 13 Sur 22 Sur 4 915.8 2.2 88
2019-09-18 00:00:00 15.1 8 Oeste 37 Sudeste 16 915.4 2.2 89
2019-09-17 23:00:00 16.6 12 Sudoeste 45 Oeste 0 914.8 2.2 73
2019-09-17 22:00:00 18.1 12 Norte 28 Norte 0 913.6 0.8 63
2019-09-17 21:00:00 19.3 14 Norte 26 Noroeste 0 913.2 0.5 56
2019-09-15 18:00:00 21.8 17 Este 28 Este 0 916.1 -1.8 48
2019-09-15 17:00:00 21.7 18 Este 28 Nordeste 0 916.7 -1.1 49
2019-09-15 16:00:00 18.9 10 Sudeste 35 Sudeste 0 917.5 -0.5 62
2019-09-15 15:00:00 19.5 21 Sur 30 Sur 0 917.9 -0.8 57
2019-09-15 14:00:00 22 14 Sudeste 35 Sur 0 917.8 -0.8 42
2019-09-15 13:00:00 23 21 Este 33 Este 0 918 -0.6 41
2019-09-15 12:00:00 21 10 Este 21 Este 0 918.7 0.7 43
2019-09-15 11:00:00 19.3 10 Nordeste 15 Nordeste 0 918.6 0.5 48
2019-09-15 10:00:00 17.6 8 Nordeste 18 Norte 0 918.6 0.5 56
2019-09-15 09:00:00 16.9 12 Norte 17 Norte 0 918 -0.3 58
2019-09-15 08:00:00 16.4 7 Norte 15 Norte 0 918.1 -0.3 59
2019-09-15 07:00:00 15.6 8 Norte 15 Norte 0 918.1 -0.7 63
2019-09-15 06:00:00 14.9 9 Norte 18 Norte 0 918.3 -0.5 65
2019-09-15 05:00:00 14.8 8 Norte 15 Norte 0 918.4 -1.2 66
2019-09-15 04:00:00 17.3 6 Nordeste 9 Nordeste 0 918.8 -1 59
2019-09-15 03:00:00 17.4 8 Norte 15 Norte 0 918.8 -0.9 61
2019-09-15 02:00:00 18 6 Nordeste 9 Nordeste 0 919.6 0 61
2019-09-15 01:00:00 18.8 8 Nordeste 13 Este 0 919.8 0.3 58
2019-09-15 00:00:00 19.6 4 Este 9 Sudeste 0 919.7 1.1 56